Time;durP1;ratioP1;P1;durP2;ratioP2;P2;SDS_P1;SDS_P2;PMS_P1;PMS_P2;Temp;Humidity;BMP_temperature;BMP_pressure;BME280_temperature;BME280_humidity;BME280_pressure;Samples;Min_cycle;Max_cycle;Signal;HPM_P1;HPM_P2
2021/10/28 00:12:12;;;;;;;12.13;9.67;;;6.40;99.90;;;;;;5051589;28;20205;-60
2021/10/28 00:12:53;;;;;;;15.67;11.13;;;6.20;99.90;;;;;;5051239;28;20708;-61
2021/10/28 00:15:27;;;;;;;16.20;12.17;;;6.20;99.90;;;;;;5051473;28;20286;-61
2021/10/28 00:18:07;;;;;;;15.97;11.63;;;6.20;99.90;;;;;;5051181;28;20266;-60
2021/10/28 00:20:36;;;;;;;16.10;12.30;;;6.20;99.90;;;;;;5051295;28;20658;-60
2021/10/28 00:23:04;;;;;;;15.53;11.33;;;6.20;99.90;;;;;;5051312;28;20255;-61
2021/10/28 00:25:32;;;;;;;19.97;12.53;;;6.20;99.90;;;;;;5051198;28;20232;-60
2021/10/28 00:27:59;;;;;;;17.50;12.33;;;6.20;99.90;;;;;;5051225;28;20214;-60
2021/10/28 00:30:26;;;;;;;18.67;12.57;;;6.30;99.90;;;;;;5051165;28;20233;-60
2021/10/28 00:32:52;;;;;;;21.43;13.37;;;6.30;99.90;;;;;;5051422;28;20239;-60
2021/10/28 00:35:19;;;;;;;17.80;13.17;;;6.30;99.90;;;;;;5051599;28;20237;-60
2021/10/28 00:37:47;;;;;;;21.43;13.17;;;6.40;99.90;;;;;;5051467;28;20213;-59
2021/10/28 00:40:14;;;;;;;18.93;12.77;;;6.40;99.90;;;;;;5051302;28;20210;-60
2021/10/28 00:42:41;;;;;;;19.50;13.57;;;6.50;99.90;;;;;;5051123;28;20212;-60
2021/10/28 00:45:09;;;;;;;18.67;13.30;;;6.50;99.90;;;;;;5051130;28;20234;-60
2021/10/28 00:47:39;;;;;;;19.73;14.17;;;6.50;99.90;;;;;;5051664;28;20201;-61
2021/10/28 00:50:08;;;;;;;18.23;14.13;;;6.60;99.90;;;;;;5051379;28;20212;-61
2021/10/28 00:52:34;;;;;;;18.50;14.13;;;6.70;99.90;;;;;;5051256;28;20221;-61
2021/10/28 00:55:03;;;;;;;18.13;14.03;;;6.80;99.90;;;;;;5050928;28;20259;-62
2021/10/28 00:57:32;;;;;;;21.53;13.63;;;6.80;99.90;;;;;;5050879;28;20696;-61
2021/10/28 01:00:01;;;;;;;21.23;14.70;;;6.90;99.90;;;;;;5051620;28;20677;-61
2021/10/28 01:02:27;;;;;;;17.90;13.17;;;6.80;99.90;;;;;;5055245;28;20242;-61
2021/10/28 01:04:54;;;;;;;20.67;14.93;;;6.80;99.90;;;;;;5055216;28;20232;-61
2021/10/28 01:07:21;;;;;;;21.03;14.77;;;6.80;99.90;;;;;;5055160;28;20259;-61
2021/10/28 01:09:48;;;;;;;21.37;15.37;;;6.70;99.90;;;;;;5054877;28;20612;-62
2021/10/28 01:12:16;;;;;;;27.97;18.47;;;6.70;99.90;;;;;;5054865;28;20226;-61
2021/10/28 01:14:44;;;;;;;26.80;17.30;;;6.70;99.90;;;;;;5054958;28;20226;-61
2021/10/28 01:17:11;;;;;;;25.10;17.63;;;6.70;99.90;;;;;;5055337;28;20258;-61
2021/10/28 01:19:38;;;;;;;22.40;16.10;;;6.80;99.90;;;;;;5054905;28;20248;-60
2021/10/28 01:22:06;;;;;;;26.57;17.30;;;6.80;99.90;;;;;;5055095;28;20197;-61
2021/10/28 01:24:33;;;;;;;24.70;17.17;;;6.90;99.90;;;;;;5054774;28;20229;-61
2021/10/28 01:27:05;;;;;;;21.63;15.83;;;6.90;99.90;;;;;;5054834;28;20216;-62
2021/10/28 01:29:32;;;;;;;23.17;15.80;;;7.00;99.90;;;;;;5054634;28;20267;-61
2021/10/28 01:31:59;;;;;;;22.07;16.50;;;6.90;99.90;;;;;;5054689;28;20224;-61
2021/10/28 01:34:26;;;;;;;24.57;17.00;;;6.90;99.90;;;;;;5054776;28;20240;-62
2021/10/28 01:36:55;;;;;;;25.30;16.37;;;6.90;99.90;;;;;;5055147;28;20589;-62
2021/10/28 01:39:23;;;;;;;22.27;16.37;;;7.00;99.90;;;;;;5054176;28;20212;-62
2021/10/28 01:41:51;;;;;;;22.93;15.83;;;6.90;99.90;;;;;;5054479;28;20340;-62
2021/10/28 01:44:18;;;;;;;21.17;15.23;;;6.90;99.90;;;;;;5054346;28;20229;-60
2021/10/28 01:46:45;;;;;;;21.13;15.00;;;6.90;99.90;;;;;;5054247;28;20205;-61
2021/10/28 01:49:23;;;;;;;22.47;16.90;;;6.90;99.90;;;;;;5054039;28;20617;-61
2021/10/28 01:51:50;;;;;;;23.40;15.87;;;7.00;99.90;;;;;;5053847;28;20205;-60
2021/10/28 01:54:17;;;;;;;21.10;16.40;;;6.90;99.90;;;;;;5053842;28;20245;-61
2021/10/28 01:56:46;;;;;;;20.33;16.37;;;6.90;99.90;;;;;;5054119;28;20205;-61
2021/10/28 01:59:12;;;;;;;24.77;16.10;;;7.00;99.90;;;;;;5053805;28;20206;-61
2021/10/28 02:01:39;;;;;;;22.00;16.57;;;7.00;99.90;;;;;;5053689;28;20666;-61
2021/10/28 02:04:06;;;;;;;20.33;15.73;;;7.10;99.90;;;;;;5053845;28;20226;-61
2021/10/28 02:06:33;;;;;;;18.97;15.33;;;7.10;99.90;;;;;;5054353;28;20213;-61
2021/10/28 02:09:00;;;;;;;20.97;15.30;;;7.00;99.90;;;;;;5054180;28;20393;-61
2021/10/28 02:11:27;;;;;;;18.97;15.47;;;7.00;99.90;;;;;;5054502;28;20209;-61
2021/10/28 02:13:58;;;;;;;21.00;15.93;;;7.00;99.90;;;;;;5055123;28;20257;-60
2021/10/28 02:16:29;;;;;;;20.53;15.97;;;6.90;99.90;;;;;;5055848;28;20202;-61
2021/10/28 02:18:56;;;;;;;20.40;15.20;;;6.90;99.90;;;;;;5055978;28;20625;-61
2021/10/28 02:21:22;;;;;;;20.83;15.53;;;6.80;99.90;;;;;;5055376;28;20202;-61
2021/10/28 02:23:49;;;;;;;22.43;15.87;;;6.80;99.90;;;;;;5055592;28;20228;-61
2021/10/28 02:26:16;;;;;;;20.73;16.23;;;6.90;99.90;;;;;;5055364;28;20213;-61
2021/10/28 02:28:42;;;;;;;21.60;16.00;;;6.90;99.90;;;;;;5055098;28;20681;-61
2021/10/28 02:31:10;;;;;;;22.23;16.43;;;7.00;99.90;;;;;;5054706;28;20669;-61
2021/10/28 02:33:37;;;;;;;24.33;17.03;;;6.90;99.90;;;;;;5055083;28;20230;-61
2021/10/28 02:36:04;;;;;;;25.07;16.83;;;6.90;99.90;;;;;;5054983;28;20209;-61
2021/10/28 02:38:31;;;;;;;22.30;16.77;;;6.90;99.90;;;;;;5054704;28;20213;-61
2021/10/28 02:40:58;;;;;;;22.10;16.70;;;6.70;99.90;;;;;;5054698;28;20206;-62
2021/10/28 02:43:25;;;;;;;22.77;16.50;;;6.70;99.90;;;;;;5053536;28;20237;-62
2021/10/28 02:45:51;;;;;;;22.93;16.70;;;6.60;99.90;;;;;;5052888;28;20605;-62
2021/10/28 02:48:19;;;;;;;23.40;18.27;;;6.60;99.90;;;;;;5053202;28;20236;-62
2021/10/28 02:50:47;;;;;;;24.17;18.83;;;6.60;99.90;;;;;;5053090;28;20493;-62
2021/10/28 02:53:14;;;;;;;27.97;19.40;;;6.60;99.90;;;;;;5052917;28;20316;-61
2021/10/28 02:55:40;;;;;;;31.60;22.60;;;6.60;99.90;;;;;;5052852;28;20248;-62
2021/10/28 02:58:07;;;;;;;30.13;22.20;;;6.70;99.90;;;;;;5052733;28;20213;-62
2021/10/28 03:00:34;;;;;;;31.00;22.17;;;6.70;99.90;;;;;;5052739;28;20211;-61
2021/10/28 03:03:00;;;;;;;31.67;21.67;;;6.80;99.90;;;;;;5053092;28;20578;-62
2021/10/28 03:05:29;;;;;;;31.67;22.90;;;6.90;99.90;;;;;;5052654;28;20233;-61
2021/10/28 03:07:56;;;;;;;33.17;22.93;;;7.00;99.90;;;;;;5052701;28;20398;-62
2021/10/28 03:10:23;;;;;;;32.03;22.80;;;7.20;99.90;;;;;;5052680;28;20232;-62
2021/10/28 03:12:52;;;;;;;29.80;22.00;;;7.30;99.90;;;;;;5052613;28;20229;-61
2021/10/28 03:15:19;;;;;;;28.37;20.47;;;7.40;99.90;;;;;;5052472;28;20236;-62
2021/10/28 03:18:07;;;;;;;28.13;21.20;;;7.50;99.90;;;;;;5052657;28;20208;-62
2021/10/28 03:26:05;;;;;;;26.63;19.57;;;7.70;99.90;;;;;;5052650;28;20205;-62
2021/10/28 03:28:31;;;;;;;27.07;19.73;;;7.60;99.90;;;;;;5052742;28;20205;-61
2021/10/28 03:30:58;;;;;;;27.90;20.33;;;7.60;99.90;;;;;;5052600;28;20214;-62
2021/10/28 03:33:25;;;;;;;25.90;20.37;;;7.60;99.90;;;;;;5051970;28;20228;-62
2021/10/28 03:35:53;;;;;;;28.90;20.37;;;7.90;99.90;;;;;;5051874;28;20611;-61
2021/10/28 03:38:23;;;;;;;28.53;21.10;;;7.80;99.90;;;;;;5052178;28;20209;-61
2021/10/28 03:44:17;;;;;;;27.93;20.70;;;8.00;99.90;;;;;;5051737;28;20228;-61
2021/10/28 03:49:52;;;;;;;29.00;20.27;;;8.10;99.90;;;;;;5048159;28;20196;-61
2021/10/28 03:58:11;;;;;;;29.47;21.90;;;8.20;99.90;;;;;;5051965;28;20197;-61
2021/10/28 04:06:20;;;;;;;23.13;17.60;;;8.00;99.90;;;;;;5051909;28;20685;-62
2021/10/28 04:16:16;;;;;;;28.30;20.53;;;8.00;99.90;;;;;;5051497;28;20205;-61
2021/10/28 04:20:14;;;;;;;26.87;18.73;;;7.70;99.90;;;;;;5051398;28;20209;-61
2021/10/28 04:30:55;;;;;;;25.00;18.00;;;7.60;99.90;;;;;;5051435;28;20677;-61
2021/10/28 04:33:22;;;;;;;24.53;18.40;;;7.50;99.90;;;;;;5051251;28;20222;-61
2021/10/28 04:35:48;;;;;;;28.13;20.73;;;7.40;99.90;;;;;;5050361;28;20241;-60
2021/10/28 04:38:16;;;;;;;28.80;20.10;;;7.40;99.90;;;;;;5051322;28;20216;-61
2021/10/28 04:40:44;;;;;;;25.90;18.73;;;7.30;99.90;;;;;;5051906;28;20206;-60
2021/10/28 04:43:11;;;;;;;26.03;18.33;;;7.20;99.90;;;;;;5052004;28;20537;-60
2021/10/28 04:45:37;;;;;;;26.10;18.17;;;7.20;99.90;;;;;;5051145;28;20252;-61
2021/10/28 04:48:05;;;;;;;25.57;18.60;;;7.00;99.90;;;;;;5051324;28;20267;-61
2021/10/28 04:50:32;;;;;;;27.63;18.97;;;6.90;99.90;;;;;;5051107;28;20205;-61
2021/10/28 04:52:58;;;;;;;27.37;19.50;;;7.00;99.90;;;;;;5051105;28;20622;-61
2021/10/28 04:55:25;;;;;;;29.93;19.73;;;7.00;99.90;;;;;;5051115;28;20230;-61
2021/10/28 04:57:53;;;;;;;29.57;20.13;;;7.10;99.90;;;;;;5051137;28;20209;-61
2021/10/28 05:00:20;;;;;;;30.40;20.70;;;7.10;99.90;;;;;;5051055;28;20209;-61
2021/10/28 05:02:46;;;;;;;27.33;18.67;;;7.10;99.90;;;;;;5051281;28;20487;-61
2021/10/28 05:05:13;;;;;;;25.90;18.70;;;7.00;99.90;;;;;;5050197;28;20287;-61
2021/10/28 05:07:40;;;;;;;26.87;19.70;;;6.90;99.90;;;;;;5051175;28;20206;-60
2021/10/28 05:10:07;;;;;;;29.70;20.10;;;6.90;99.90;;;;;;5050942;28;20583;-62
2021/10/28 05:12:33;;;;;;;27.93;18.50;;;6.80;99.90;;;;;;5051453;28;20209;-61
2021/10/28 05:15:01;;;;;;;25.37;18.40;;;6.70;99.90;;;;;;5050415;28;20256;-64
2021/10/28 05:17:28;;;;;;;25.83;18.73;;;6.60;99.90;;;;;;5050377;28;20220;-61
2021/10/28 05:19:55;;;;;;;28.13;19.30;;;6.60;99.90;;;;;;5050627;28;20267;-61
2021/10/28 05:22:21;;;;;;;26.73;18.60;;;6.50;99.90;;;;;;5050800;28;20216;-61
2021/10/28 05:24:48;;;;;;;27.53;19.83;;;6.60;99.90;;;;;;5050806;28;20316;-61
2021/10/28 05:27:15;;;;;;;28.23;20.40;;;6.60;99.90;;;;;;5050526;28;20216;-61
2021/10/28 05:29:42;;;;;;;25.50;18.43;;;6.50;99.90;;;;;;5050611;28;20205;-61
2021/10/28 05:32:10;;;;;;;27.33;20.00;;;6.50;99.90;;;;;;5050453;28;20457;-61
2021/10/28 05:34:37;;;;;;;25.17;18.97;;;6.50;99.90;;;;;;5050117;28;20425;-61
2021/10/28 05:37:05;;;;;;;28.47;18.70;;;6.60;99.90;;;;;;5050638;28;20823;-61
2021/10/28 05:39:32;;;;;;;28.07;19.43;;;6.70;99.90;;;;;;5050856;28;20212;-61
2021/10/28 05:41:58;;;;;;;30.97;21.40;;;6.80;99.90;;;;;;5050626;28;20365;-61
2021/10/28 05:44:25;;;;;;;24.80;18.27;;;6.80;99.90;;;;;;5050176;28;20264;-61
2021/10/28 05:46:52;;;;;;;31.80;19.73;;;6.80;99.90;;;;;;5052526;28;20202;-61
2021/10/28 05:49:21;;;;;;;24.77;17.23;;;6.80;99.90;;;;;;5053700;28;20205;-61
2021/10/28 05:51:48;;;;;;;25.47;18.20;;;6.80;99.90;;;;;;5054106;28;20292;-61
2021/10/28 05:54:15;;;;;;;28.10;18.07;;;6.70;99.90;;;;;;5054013;28;20602;-61
2021/10/28 05:56:41;;;;;;;25.47;17.57;;;6.70;99.90;;;;;;5054116;28;20213;-60
2021/10/28 05:59:08;;;;;;;26.20;19.13;;;6.80;99.90;;;;;;5054381;28;20213;-61
2021/10/28 06:01:35;;;;;;;26.17;18.33;;;6.70;99.90;;;;;;5054009;28;20206;-61
2021/10/28 06:04:01;;;;;;;25.33;18.13;;;6.80;99.90;;;;;;5054644;28;20222;-61
2021/10/28 06:06:29;;;;;;;26.27;18.07;;;6.80;99.90;;;;;;5054410;28;20205;-61
2021/10/28 06:08:56;;;;;;;26.67;19.77;;;6.80;99.90;;;;;;5054341;28;20205;-62
2021/10/28 06:11:23;;;;;;;24.80;16.80;;;6.80;99.90;;;;;;5054118;28;20209;-61
2021/10/28 06:13:51;;;;;;;23.40;15.87;;;6.80;99.90;;;;;;5053369;28;20256;-61
2021/10/28 06:16:17;;;;;;;22.03;14.60;;;6.80;99.90;;;;;;5053800;28;20206;-63
2021/10/28 06:18:46;;;;;;;18.80;13.83;;;6.70;99.90;;;;;;5053783;28;20263;-60
2021/10/28 06:21:13;;;;;;;21.90;14.43;;;6.70;99.90;;;;;;5053664;28;20241;-62
2021/10/28 06:23:42;;;;;;;21.70;15.37;;;6.70;99.90;;;;;;5053819;28;20288;-61
2021/10/28 06:26:09;;;;;;;19.30;14.33;;;6.70;99.90;;;;;;5053609;28;20580;-62
2021/10/28 06:28:36;;;;;;;21.70;15.93;;;6.70;99.90;;;;;;5053373;28;20209;-62
2021/10/28 06:31:03;;;;;;;20.87;15.70;;;6.70;99.90;;;;;;5053656;28;20580;-61
2021/10/28 06:33:34;;;;;;;21.53;16.00;;;6.80;99.90;;;;;;5053287;28;20236;-61
2021/10/28 06:36:03;;;;;;;20.33;14.67;;;6.80;99.90;;;;;;5059547;22;20855;-60
2021/10/28 06:38:32;;;;;;;20.83;15.30;;;6.90;99.90;;;;;;5033203;28;20210;-60
2021/10/28 06:41:02;;;;;;;19.93;15.17;;;6.90;99.90;;;;;;5033844;28;20211;-59
2021/10/28 06:43:30;;;;;;;19.63;14.30;;;6.90;99.90;;;;;;5032552;28;20210;-60
2021/10/28 06:45:57;;;;;;;25.30;15.93;;;7.10;99.90;;;;;;5033095;28;20226;-60
2021/10/28 06:48:24;;;;;;;19.47;13.90;;;7.30;99.90;;;;;;5033149;28;20616;-60
2021/10/28 06:50:53;;;;;;;20.43;15.10;;;7.60;99.90;;;;;;5033325;28;20198;-60
2021/10/28 06:53:25;;;;;;;20.17;14.53;;;7.80;99.90;;;;;;5032862;28;20264;-60
2021/10/28 06:56:04;;;;;;;18.87;13.93;;;8.00;99.90;;;;;;5033301;28;20284;-60
2021/10/28 07:04:03;;;;;;;19.73;13.73;;;8.30;99.90;;;;;;5032318;28;20252;-60
2021/10/28 07:06:33;;;;;;;22.87;15.03;;;8.40;99.90;;;;;;5032658;28;20206;-60
2021/10/28 07:09:04;;;;;;;20.40;14.87;;;8.50;99.90;;;;;;5032776;28;20206;-60
2021/10/28 07:11:34;;;;;;;19.40;14.40;;;8.50;99.90;;;;;;5032684;28;20646;-60
2021/10/28 07:14:05;;;;;;;18.30;13.83;;;8.50;99.90;;;;;;5032280;28;20333;-59
2021/10/28 07:16:39;;;;;;;22.93;15.33;;;8.50;99.90;;;;;;5032641;28;20212;-60
2021/10/28 07:19:34;;;;;;;18.17;15.07;;;8.60;99.90;;;;;;5032753;28;20206;-60
2021/10/28 07:22:18;;;;;;;19.73;15.20;;;8.40;99.90;;;;;;5032579;28;20264;-60
2021/10/28 07:24:56;;;;;;;19.23;14.00;;;8.10;99.90;;;;;;5032397;28;20280;-60
2021/10/28 07:27:50;;;;;;;22.23;14.67;;;7.80;99.90;;;;;;5032685;28;20296;-61
2021/10/28 07:30:33;;;;;;;22.70;14.50;;;7.90;99.90;;;;;;5032452;28;20206;-61
2021/10/28 07:33:13;;;;;;;19.80;15.27;;;8.10;99.90;;;;;;5032104;28;20645;-60
2021/10/28 07:55:09;;;;;;;19.50;15.27;;;9.50;99.90;;;;;;5031471;28;20777;-60
2021/10/28 07:57:43;;;;;;;21.77;16.03;;;9.50;99.90;;;;;;5031844;28;20234;-60
2021/10/28 08:04:40;;;;;;;21.63;15.63;;;9.50;99.90;;;;;;5031800;28;20287;-61
2021/10/28 08:14:28;;;;;;;17.87;14.87;;;9.70;99.90;;;;;;5031129;28;20621;-60
2021/10/28 08:17:11;;;;;;;17.10;14.10;;;9.80;99.90;;;;;;5031578;28;20217;-60
2021/10/28 08:19:49;;;;;;;18.07;14.10;;;9.90;99.90;;;;;;5031423;28;20233;-59
2021/10/28 08:22:20;;;;;;;20.27;14.43;;;10.10;99.90;;;;;;5031691;28;20285;-62
2021/10/28 08:30:22;;;;;;;17.07;12.43;;;10.40;99.90;;;;;;5031610;28;20280;-60
2021/10/28 08:32:49;;;;;;;14.97;11.93;;;10.50;99.90;;;;;;5031230;28;20678;-60
2021/10/28 08:35:17;;;;;;;14.03;10.93;;;10.50;99.90;;;;;;5031057;28;20237;-60
2021/10/28 08:37:46;;;;;;;14.07;11.97;;;10.50;99.90;;;;;;5031123;28;20210;-60
2021/10/28 08:40:15;;;;;;;14.13;12.20;;;10.60;99.90;;;;;;5031340;28;20242;-60
2021/10/28 08:42:42;;;;;;;13.17;11.23;;;10.80;99.90;;;;;;5031162;28;20312;-60
2021/10/28 08:45:13;;;;;;;13.30;11.27;;;11.00;99.90;;;;;;5030810;28;20229;-60
2021/10/28 08:47:45;;;;;;;14.40;11.40;;;11.20;99.90;;;;;;5031541;28;20216;-60
2021/10/28 08:50:14;;;;;;;12.37;10.13;;;11.20;99.90;;;;;;5031040;28;20321;-60
2021/10/28 08:52:56;;;;;;;13.23;10.97;;;11.20;99.90;;;;;;5031342;28;20301;-59
2021/10/28 08:55:29;;;;;;;12.47;10.47;;;11.20;99.90;;;;;;5030949;28;20229;-60
2021/10/28 09:26:41;;;;;;;14.23;10.20;;;12.50;99.90;;;;;;5034401;28;20197;-59
2021/10/28 09:29:15;;;;;;;11.30;9.47;;;12.60;99.90;;;;;;5034467;28;20253;-59
2021/10/28 09:31:52;;;;;;;12.73;9.80;;;12.80;99.90;;;;;;5034782;28;20489;-59
2021/10/28 09:45:56;;;;;;;13.83;11.60;;;13.50;99.90;;;;;;5033996;28;20709;-59
2021/10/28 09:48:46;;;;;;;13.33;11.40;;;13.60;99.90;;;;;;5034012;28;20285;-59
2021/10/28 09:51:17;;;;;;;12.10;10.63;;;13.80;99.90;;;;;;5034171;28;20210;-59
2021/10/28 09:54:05;;;;;;;13.07;11.33;;;13.90;99.90;;;;;;5033750;28;20681;-59
2021/10/28 09:59:27;;;;;;;14.13;12.00;;;14.10;99.90;;;;;;5033826;28;20324;-60
2021/10/28 10:02:06;;;;;;;13.77;11.10;;;14.10;99.90;;;;;;5033889;28;20214;-59
2021/10/28 10:04:33;;;;;;;13.00;10.50;;;14.20;99.90;;;;;;5033764;28;20226;-61
2021/10/28 10:07:02;;;;;;;11.10;9.70;;;14.20;99.90;;;;;;5033895;28;20206;-57
2021/10/28 10:09:29;;;;;;;13.97;10.73;;;14.30;99.90;;;;;;5033366;28;20289;-58
2021/10/28 10:11:56;;;;;;;11.23;10.03;;;14.70;99.90;;;;;;5033817;28;20214;-57
2021/10/28 10:14:26;;;;;;;12.87;10.30;;;15.00;99.90;;;;;;5033338;28;20237;-58
2021/10/28 10:16:53;;;;;;;12.17;10.87;;;15.30;99.90;;;;;;5033316;28;20628;-57
2021/10/28 10:19:28;;;;;;;19.80;11.27;;;15.50;99.90;;;;;;5033413;28;20209;-58
2021/10/28 10:21:56;;;;;;;11.60;10.27;;;15.70;99.90;;;;;;5033492;28;20268;-58
2021/10/28 10:24:46;;;;;;;11.27;9.93;;;15.80;99.90;;;;;;5033094;28;20249;-58
2021/10/28 11:21:49;;;;;;;12.35;10.93;;;17.50;99.90;;;;;;5032315;28;20809;-58
2021/10/28 12:27:44;;;;;;;14.82;11.02;;;17.50;99.90;;;;;;5149685;27;20553;-61
2021/10/28 12:45:35;;;;;;;15.90;11.23;;;17.90;99.90;;;;;;5108364;28;20764;-60
2021/10/28 12:51:02;;;;;;;15.15;11.45;;;18.00;99.90;;;;;;5108538;28;20207;-59
2021/10/28 12:53:40;;;;;;;14.70;11.25;;;18.00;99.90;;;;;;5108420;28;20238;-61
2021/10/28 13:38:05;;;;;;;14.27;11.35;;;17.60;99.90;;;;;;5093656;28;20504;-60
2021/10/28 13:48:54;;;;;;;12.65;11.35;;;17.70;99.90;;;;;;5093766;28;20232;-60
2021/10/28 13:51:34;;;;;;;12.35;11.07;;;17.60;99.90;;;;;;5093859;28;20265;-59
2021/10/28 13:56:55;;;;;;;13.52;11.68;;;17.70;99.90;;;;;;5093288;28;20349;-60
2021/10/28 14:21:45;;;;;;;14.10;11.98;;;17.50;99.90;;;;;;5092951;28;20208;-59
2021/10/28 14:30:22;;;;;;;16.23;12.38;;;17.60;99.90;;;;;;5092357;28;20203;-60
2021/10/28 15:28:01;;;;;;;14.23;12.07;;;16.20;99.90;;;;;;5091028;28;20227;-60
2021/10/28 15:30:43;;;;;;;13.27;11.60;;;16.20;99.90;;;;;;5091084;28;20247;-60
2021/10/28 15:33:50;;;;;;;14.33;12.23;;;16.10;99.90;;;;;;5091100;28;20837;-59
2021/10/28 15:36:21;;;;;;;15.43;11.87;;;16.00;99.90;;;;;;5091061;28;20224;-59
2021/10/28 15:38:54;;;;;;;16.87;13.27;;;15.80;99.90;;;;;;5091112;28;20253;-61
2021/10/28 16:01:13;;;;;;;16.77;10.80;;;15.20;99.90;;;;;;5090981;28;20261;-60
2021/10/28 16:22:51;;;;;;;11.87;8.87;;;13.70;99.90;;;;;;5090613;28;20639;-59
2021/10/28 16:25:17;;;;;;;12.10;9.53;;;13.60;99.90;;;;;;5090158;28;20603;-59
2021/10/28 16:27:44;;;;;;;13.67;9.50;;;13.40;99.90;;;;;;5090469;28;20220;-63
2021/10/28 16:30:11;;;;;;;13.17;9.20;;;13.30;99.90;;;;;;5090840;28;20671;-59
2021/10/28 16:32:39;;;;;;;15.90;11.00;;;13.20;99.90;;;;;;5090866;28;20231;-60
2021/10/28 16:35:06;;;;;;;15.83;11.43;;;13.10;99.90;;;;;;5090580;28;20200;-60
2021/10/28 16:37:34;;;;;;;13.23;9.33;;;13.00;99.90;;;;;;5090829;28;20619;-59
2021/10/28 16:40:01;;;;;;;10.97;7.87;;;12.90;99.90;;;;;;5090841;28;20249;-60
2021/10/28 16:42:28;;;;;;;11.10;8.10;;;12.80;99.90;;;;;;5090931;28;20204;-60
2021/10/28 16:44:55;;;;;;;15.90;10.40;;;12.70;99.90;;;;;;5090610;28;20228;-60
2021/10/28 16:47:22;;;;;;;15.90;11.20;;;12.60;99.90;;;;;;5090335;28;20224;-59
2021/10/28 16:49:50;;;;;;;14.47;10.17;;;12.40;99.90;;;;;;5090731;28;20211;-60
2021/10/28 16:52:17;;;;;;;15.60;11.50;;;12.30;99.90;;;;;;5090927;28;20204;-60
2021/10/28 16:54:44;;;;;;;16.93;11.77;;;12.10;99.90;;;;;;5090637;28;20215;-60
2021/10/28 16:57:10;;;;;;;14.17;10.10;;;12.00;99.90;;;;;;5090580;28;20703;-59
2021/10/28 16:59:37;;;;;;;13.97;10.40;;;12.00;99.90;;;;;;5090338;28;20691;-59
2021/10/28 17:02:05;;;;;;;15.00;11.70;;;11.90;99.90;;;;;;5090438;28;20264;-60
2021/10/28 17:04:31;;;;;;;21.10;12.77;;;11.80;99.90;;;;;;5090524;28;20228;-60
2021/10/28 17:06:59;;;;;;;15.10;11.03;;;11.70;99.90;;;;;;5090551;28;20235;-59
2021/10/28 17:09:26;;;;;;;13.00;10.13;;;11.60;99.90;;;;;;5090216;28;20211;-59
2021/10/28 17:11:53;;;;;;;14.77;10.07;;;11.50;99.90;;;;;;5093270;28;20231;-60
2021/10/28 17:14:20;;;;;;;13.47;10.00;;;11.50;99.90;;;;;;5094106;28;20664;-60
2021/10/28 17:16:47;;;;;;;10.53;9.17;;;11.30;99.90;;;;;;5093413;28;20224;-60
2021/10/28 17:19:16;;;;;;;9.53;7.73;;;11.10;99.90;;;;;;5094266;28;20214;-60
2021/10/28 17:21:44;;;;;;;10.57;8.13;;;11.00;99.90;;;;;;5094230;28;20208;-60
2021/10/28 17:24:22;;;;;;;15.17;9.33;;;10.80;99.90;;;;;;5094042;28;20200;-59
2021/10/28 17:26:49;;;;;;;10.47;8.07;;;10.60;99.90;;;;;;5094078;28;20703;-59
2021/10/28 17:29:16;;;;;;;11.60;8.60;;;10.60;99.90;;;;;;5093883;28;20684;-60
2021/10/28 17:31:43;;;;;;;11.67;9.67;;;10.60;99.90;;;;;;5094379;28;20579;-59
2021/10/28 17:34:10;;;;;;;12.47;8.97;;;10.50;99.90;;;;;;5093924;28;20207;-59
2021/10/28 17:36:36;;;;;;;14.33;10.03;;;10.50;99.90;;;;;;5093953;28;20236;-59
2021/10/28 17:39:05;;;;;;;12.83;9.57;;;10.40;99.90;;;;;;5093960;28;20301;-59
2021/10/28 17:41:33;;;;;;;14.40;9.80;;;10.40;99.90;;;;;;5093481;28;20280;-59
2021/10/28 17:44:04;;;;;;;12.07;9.50;;;10.30;99.90;;;;;;5093745;28;20208;-59
2021/10/28 17:46:30;;;;;;;12.73;10.20;;;10.30;99.90;;;;;;5094468;28;20228;-60
2021/10/28 17:48:57;;;;;;;13.30;9.93;;;10.20;99.90;;;;;;5093480;28;20204;-60
2021/10/28 17:51:24;;;;;;;11.87;9.50;;;10.20;99.90;;;;;;5093660;28;20250;-59
2021/10/28 17:53:51;;;;;;;16.77;10.77;;;10.20;99.90;;;;;;5093541;28;20641;-60
2021/10/28 17:56:20;;;;;;;14.50;11.43;;;10.10;99.90;;;;;;5093408;28;20246;-58
2021/10/28 17:58:49;;;;;;;15.67;9.77;;;10.10;99.90;;;;;;5093328;28;20668;-59
2021/10/28 18:01:19;;;;;;;12.57;10.30;;;10.10;99.90;;;;;;5093510;28;20217;-59
2021/10/28 18:03:46;;;;;;;17.53;10.23;;;9.90;99.90;;;;;;5093369;28;20204;-58
2021/10/28 18:06:13;;;;;;;13.17;9.87;;;10.00;99.90;;;;;;5093010;28;20232;-60
2021/10/28 18:08:40;;;;;;;14.60;10.93;;;10.00;99.90;;;;;;5093176;28;20200;-59
2021/10/28 18:11:06;;;;;;;14.67;10.37;;;9.80;99.90;;;;;;5093505;28;20208;-59
2021/10/28 18:13:35;;;;;;;13.43;9.90;;;9.80;99.90;;;;;;5093047;28;20364;-60
2021/10/28 18:16:03;;;;;;;14.57;10.03;;;9.70;99.90;;;;;;5093491;28;20220;-60
2021/10/28 18:18:30;;;;;;;13.27;9.53;;;9.70;99.90;;;;;;5093539;28;20583;-59
2021/10/28 18:20:56;;;;;;;12.63;9.47;;;9.70;99.90;;;;;;5093759;28;20212;-60
2021/10/28 18:23:24;;;;;;;13.07;9.93;;;9.70;99.90;;;;;;5093079;28;20212;-61
2021/10/28 18:25:51;;;;;;;13.57;9.30;;;9.60;99.90;;;;;;5093256;28;20220;-59
2021/10/28 18:28:17;;;;;;;13.83;10.53;;;9.60;99.90;;;;;;5092808;28;20208;-58
2021/10/28 18:30:44;;;;;;;12.33;9.53;;;9.60;99.90;;;;;;5092967;28;20684;-59
2021/10/28 18:33:12;;;;;;;14.30;10.40;;;9.50;99.90;;;;;;5092966;28;20204;-60
2021/10/28 18:35:41;;;;;;;15.20;11.23;;;9.50;99.90;;;;;;5092741;28;20215;-60
2021/10/28 18:38:10;;;;;;;15.40;10.70;;;9.40;99.90;;;;;;5093258;28;20239;-59
2021/10/28 18:40:37;;;;;;;16.97;10.83;;;9.50;99.90;;;;;;5092908;28;20204;-59
2021/10/28 18:43:05;;;;;;;13.90;10.77;;;9.40;99.90;;;;;;5092773;28;20220;-63
2021/10/28 18:45:32;;;;;;;12.20;10.03;;;9.40;99.90;;;;;;5092611;28;20227;-60
2021/10/28 18:47:59;;;;;;;13.10;10.10;;;9.30;99.90;;;;;;5092551;28;20711;-61
2021/10/28 18:50:27;;;;;;;12.37;9.30;;;9.20;99.90;;;;;;5092738;28;20384;-61
2021/10/28 18:52:54;;;;;;;15.17;10.07;;;9.20;99.90;;;;;;5092609;28;20683;-61
2021/10/28 18:55:20;;;;;;;12.90;9.83;;;9.20;99.90;;;;;;5092603;28;20207;-61
2021/10/28 18:57:47;;;;;;;14.30;10.00;;;9.10;99.90;;;;;;5092140;28;20220;-61
2021/10/28 19:00:14;;;;;;;13.03;8.93;;;9.10;99.90;;;;;;5092253;28;20208;-61
2021/10/28 19:02:41;;;;;;;15.03;9.87;;;9.00;99.90;;;;;;5092374;28;20598;-61
2021/10/28 19:05:09;;;;;;;11.73;9.07;;;9.00;99.90;;;;;;5092132;28;20231;-61
2021/10/28 19:07:38;;;;;;;15.20;9.97;;;8.90;99.90;;;;;;5092292;28;20243;-60
2021/10/28 19:10:06;;;;;;;12.17;8.63;;;8.90;99.90;;;;;;5092122;28;20226;-61
2021/10/28 19:12:33;;;;;;;10.70;8.23;;;8.90;99.90;;;;;;5092112;28;20208;-61
2021/10/28 19:15:00;;;;;;;11.13;8.60;;;8.90;99.90;;;;;;5091850;28;20664;-60
2021/10/28 19:17:27;;;;;;;11.60;8.80;;;8.90;99.90;;;;;;5091765;28;20235;-60
2021/10/28 19:19:53;;;;;;;12.20;8.17;;;8.90;99.90;;;;;;5091933;28;20231;-60
2021/10/28 19:22:23;;;;;;;11.60;8.23;;;8.90;99.90;;;;;;5091954;28;20201;-60
2021/10/28 19:24:51;;;;;;;13.60;9.40;;;8.90;99.90;;;;;;5091582;28;20250;-61
2021/10/28 19:27:17;;;;;;;14.20;9.87;;;8.80;99.90;;;;;;5091570;28;20224;-60
2021/10/28 19:29:50;;;;;;;13.77;9.03;;;8.70;99.90;;;;;;5091797;28;20481;-60
2021/10/28 19:32:19;;;;;;;11.00;9.10;;;8.80;99.90;;;;;;5091639;28;20219;-60
2021/10/28 19:34:46;;;;;;;12.37;9.53;;;8.90;99.90;;;;;;5091268;28;20204;-60
2021/10/28 19:37:17;;;;;;;11.90;9.43;;;9.00;99.90;;;;;;5091678;28;20247;-60
2021/10/28 19:45:25;;;;;;;13.87;9.20;;;9.00;99.90;;;;;;5090954;28;20361;-61
2021/10/28 19:47:52;;;;;;;11.07;9.70;;;9.10;99.90;;;;;;5091592;28;20231;-60
2021/10/28 19:50:19;;;;;;;14.13;9.07;;;9.00;99.90;;;;;;5091476;28;20204;-59
2021/10/28 19:52:46;;;;;;;11.80;9.47;;;8.90;99.90;;;;;;5091335;28;20299;-60
2021/10/28 19:55:14;;;;;;;11.37;8.73;;;8.80;99.90;;;;;;5091416;28;20201;-60
2021/10/28 19:57:48;;;;;;;12.23;9.50;;;8.90;99.90;;;;;;5091384;28;20220;-60
2021/10/28 20:00:22;;;;;;;12.97;9.33;;;8.90;99.90;;;;;;5091673;28;20298;-60
2021/10/28 20:22:11;;;;;;;12.10;10.27;;;8.90;99.90;;;;;;5085844;28;20192;-61
2021/10/28 20:24:39;;;;;;;12.77;10.83;;;8.90;99.90;;;;;;5091183;28;20207;-61
2021/10/28 20:27:06;;;;;;;15.23;11.20;;;9.00;99.90;;;;;;5091009;28;20228;-61
2021/10/28 20:29:34;;;;;;;16.17;11.37;;;9.00;99.90;;;;;;5091037;28;20215;-61
2021/10/28 20:32:01;;;;;;;14.03;10.83;;;9.00;99.90;;;;;;5091046;28;20208;-61
2021/10/28 20:34:31;;;;;;;14.90;11.80;;;9.00;99.90;;;;;;5090891;28;20252;-60
2021/10/28 20:37:08;;;;;;;18.87;11.90;;;9.10;99.90;;;;;;5091417;28;20311;-61